createdAt,value
2023-01-29T00:01:10.545Z,2.90
2023-01-29T00:03:41.485Z,2.90
2023-01-29T00:06:13.166Z,2.90
2023-01-29T00:08:43.639Z,2.90
2023-01-29T00:11:16.780Z,2.90
2023-01-29T00:13:47.403Z,2.90
2023-01-29T00:16:17.900Z,2.90
2023-01-29T00:18:48.252Z,2.90
2023-01-29T00:21:19.830Z,2.80
2023-01-29T00:23:50.544Z,2.90
2023-01-29T00:26:23.727Z,2.90
2023-01-29T00:28:54.267Z,2.80
2023-01-29T00:31:28.686Z,2.80
2023-01-29T00:33:59.115Z,2.80
2023-01-29T00:36:30.509Z,2.80
2023-01-29T00:39:10.815Z,2.70
2023-01-29T00:41:56.332Z,2.60
2023-01-29T00:44:39.115Z,2.70
2023-01-29T00:47:31.030Z,2.50
2023-01-29T00:50:01.724Z,2.50
2023-01-29T00:52:32.407Z,2.60
2023-01-29T00:55:03.638Z,2.60
2023-01-29T00:57:38.187Z,2.50
2023-01-29T01:00:11.654Z,2.50
2023-01-29T01:02:54.496Z,2.40
2023-01-29T01:05:24.951Z,2.40
2023-01-29T01:07:56.856Z,2.40
2023-01-29T01:10:26.917Z,2.50
2023-01-29T01:13:01.455Z,2.40
2023-01-29T01:15:34.095Z,2.50
2023-01-29T01:18:05.587Z,2.40
2023-01-29T01:20:38.573Z,2.40
2023-01-29T01:23:08.930Z,2.40
2023-01-29T01:25:39.321Z,2.50
2023-01-29T01:28:12.486Z,2.50
2023-01-29T01:30:42.912Z,2.50
2023-01-29T01:33:13.308Z,2.50
2023-01-29T01:35:43.899Z,2.60
2023-01-29T01:38:14.856Z,2.50
2023-01-29T01:40:49.348Z,2.50
2023-01-29T01:43:22.676Z,2.50
2023-01-29T01:45:54.313Z,2.60
2023-01-29T01:48:27.805Z,2.50
2023-01-29T01:51:03.549Z,2.50
2023-01-29T01:53:38.779Z,2.40
2023-01-29T01:56:12.115Z,2.40
2023-01-29T01:58:50.714Z,2.50
2023-01-29T02:01:23.760Z,2.50
2023-01-29T02:04:12.129Z,2.50
2023-01-29T02:06:56.150Z,2.40
2023-01-29T02:09:36.456Z,2.40
2023-01-29T02:12:09.513Z,2.40
2023-01-29T02:14:46.438Z,2.40
2023-01-29T02:17:18.942Z,2.30
2023-01-29T02:19:54.067Z,2.50
2023-01-29T02:22:49.140Z,2.40
2023-01-29T02:25:45.678Z,2.30
2023-01-29T02:28:42.608Z,2.30
2023-01-29T02:31:20.047Z,2.40
2023-01-29T02:33:58.952Z,2.40
2023-01-29T02:36:37.852Z,2.30
2023-01-29T02:39:18.399Z,2.30
2023-01-29T02:42:02.504Z,2.30
2023-01-29T02:44:43.320Z,2.30
2023-01-29T02:47:24.207Z,2.30
2023-01-29T02:50:02.307Z,2.30
2023-01-29T02:52:43.442Z,2.20
2023-01-29T02:55:18.904Z,2.20
2023-01-29T02:57:52.388Z,2.20
2023-01-29T03:00:28.718Z,2.10
2023-01-29T03:03:05.298Z,2.10
2023-01-29T03:05:45.018Z,2.10
2023-01-29T03:08:21.712Z,2.10
2023-01-29T03:10:56.842Z,2.10
2023-01-29T03:13:35.107Z,2.00
2023-01-29T03:16:12.837Z,2.00
2023-01-29T03:18:52.369Z,2.00
2023-01-29T03:21:40.476Z,2.10
2023-01-29T03:24:28.772Z,2.00
2023-01-29T03:27:14.159Z,1.90
2023-01-29T03:30:03.169Z,1.90
2023-01-29T03:32:54.934Z,1.90
2023-01-29T03:35:36.719Z,1.90
2023-01-29T03:38:10.432Z,2.00
2023-01-29T03:40:48.947Z,1.80
2023-01-29T03:43:33.047Z,1.80
2023-01-29T03:46:09.410Z,1.80
2023-01-29T03:48:51.249Z,1.90
2023-01-29T03:51:31.194Z,1.90
2023-01-29T03:54:09.232Z,1.80
2023-01-29T03:56:49.806Z,1.80
2023-01-29T03:59:28.514Z,1.80
2023-01-29T04:02:19.440Z,1.80
2023-01-29T04:04:55.720Z,1.80
2023-01-29T04:07:29.827Z,1.80
2023-01-29T04:10:08.980Z,1.80
2023-01-29T04:12:48.607Z,1.90
2023-01-29T04:15:20.688Z,1.90
2023-01-29T04:17:53.780Z,1.90
2023-01-29T04:20:34.604Z,1.90
2023-01-29T04:23:05.705Z,1.90
2023-01-29T04:25:45.687Z,1.90
2023-01-29T04:28:22.427Z,1.80
2023-01-29T04:30:57.220Z,1.90
2023-01-29T04:33:40.186Z,1.90
2023-01-29T04:36:26.464Z,1.90
2023-01-29T04:39:05.595Z,1.90
2023-01-29T04:41:39.624Z,1.90
2023-01-29T04:44:19.922Z,1.90
2023-01-29T04:46:55.434Z,1.90
2023-01-29T04:49:35.451Z,1.90
2023-01-29T04:52:12.612Z,2.00
2023-01-29T04:54:56.885Z,2.00
2023-01-29T04:57:34.820Z,2.00
2023-01-29T05:00:12.279Z,2.00
2023-01-29T05:02:46.561Z,2.00
2023-01-29T05:05:19.704Z,2.00
2023-01-29T05:07:53.069Z,2.10
2023-01-29T05:10:25.369Z,2.10
2023-01-29T05:13:01.044Z,2.10
2023-01-29T05:15:37.314Z,2.10
2023-01-29T05:18:09.202Z,2.20
2023-01-29T05:20:42.738Z,2.10
2023-01-29T05:23:19.947Z,2.10
2023-01-29T05:25:51.796Z,2.10
2023-01-29T05:28:20.014Z,2.10
2023-01-29T05:30:52.085Z,2.10
2023-01-29T05:33:24.840Z,2.10
2023-01-29T05:35:55.486Z,2.10
2023-01-29T05:38:28.657Z,2.00
2023-01-29T05:41:01.751Z,2.00
2023-01-29T05:43:32.064Z,2.00
2023-01-29T05:46:04.022Z,1.90
2023-01-29T05:48:34.357Z,2.00
2023-01-29T05:51:05.618Z,2.00
2023-01-29T05:53:38.493Z,2.00
2023-01-29T05:56:09.615Z,2.00
2023-01-29T05:58:40.185Z,2.10
2023-01-29T06:01:15.291Z,2.10
2023-01-29T06:03:45.750Z,2.00
2023-01-29T06:06:17.011Z,2.00
2023-01-29T06:08:50.279Z,2.00
2023-01-29T06:11:21.928Z,2.10
2023-01-29T06:13:52.230Z,2.10
2023-01-29T06:16:22.611Z,2.10
2023-01-29T06:18:52.947Z,2.10
2023-01-29T06:21:23.238Z,2.20
2023-01-29T06:23:58.581Z,2.20
2023-01-29T06:26:28.979Z,2.20
2023-01-29T06:28:59.398Z,2.20
2023-01-29T06:31:38.434Z,2.20
2023-01-29T06:34:09.580Z,2.20
2023-01-29T06:36:40.061Z,2.20
2023-01-29T06:39:13.399Z,2.30
2023-01-29T06:41:45.482Z,2.20
2023-01-29T06:44:15.971Z,2.20
2023-01-29T06:46:46.443Z,2.30
2023-01-29T06:49:16.836Z,2.30
2023-01-29T06:51:47.151Z,2.30
2023-01-29T06:54:20.160Z,2.50
2023-01-29T06:56:50.570Z,2.30
2023-01-29T06:59:20.926Z,2.30
2023-01-29T07:01:51.342Z,2.30
2023-01-29T07:04:21.749Z,2.30
2023-01-29T07:06:52.150Z,2.40
2023-01-29T07:09:25.100Z,2.30
2023-01-29T07:11:55.397Z,2.30
2023-01-29T07:14:28.484Z,2.30
2023-01-29T07:16:58.797Z,2.30
2023-01-29T07:19:30.101Z,2.20
2023-01-29T07:22:02.497Z,2.20
2023-01-29T07:24:35.967Z,2.30
2023-01-29T07:27:06.530Z,2.30
2023-01-29T07:29:37.008Z,2.10
2023-01-29T07:32:08.267Z,2.10
2023-01-29T07:34:38.583Z,2.20
2023-01-29T07:37:09.089Z,2.10
2023-01-29T07:39:42.033Z,2.10
2023-01-29T07:42:12.468Z,2.10
2023-01-29T07:44:42.760Z,2.10
2023-01-29T07:47:13.952Z,2.00
2023-01-29T07:49:45.136Z,2.00
2023-01-29T07:52:15.414Z,2.00
2023-01-29T07:54:48.303Z,2.00
2023-01-29T07:57:18.637Z,2.00
2023-01-29T07:59:49.029Z,2.00
2023-01-29T08:02:19.355Z,2.00
2023-01-29T08:04:49.696Z,2.00
2023-01-29T08:07:20.023Z,2.10
2023-01-29T08:09:52.979Z,2.10
2023-01-29T08:12:23.342Z,2.00
2023-01-29T08:14:53.643Z,2.10
2023-01-29T08:17:24.093Z,2.10
2023-01-29T08:19:54.508Z,2.10
2023-01-29T08:22:24.886Z,2.20
2023-01-29T08:25:06.313Z,2.10
2023-01-29T08:27:38.406Z,2.10
2023-01-29T08:30:10.219Z,2.10
2023-01-29T08:32:40.600Z,2.10
2023-01-29T08:35:11.952Z,2.10
2023-01-29T08:37:42.442Z,2.20
2023-01-29T08:40:16.435Z,2.20
2023-01-29T08:42:46.898Z,2.20
2023-01-29T08:45:17.405Z,2.30
2023-01-29T08:47:51.272Z,2.10
2023-01-29T08:50:22.111Z,2.20
2023-01-29T08:52:52.542Z,2.10
2023-01-29T08:55:26.122Z,2.20
2023-01-29T08:57:57.491Z,2.10
2023-01-29T09:00:28.084Z,2.20
2023-01-29T09:02:59.821Z,2.20
2023-01-29T09:05:30.624Z,2.20
2023-01-29T09:08:01.192Z,2.30
2023-01-29T09:10:34.315Z,2.30
2023-01-29T09:13:04.690Z,2.30
2023-01-29T09:15:35.042Z,2.30
2023-01-29T09:18:07.215Z,2.30
2023-01-29T09:20:38.381Z,2.30
2023-01-29T09:23:09.182Z,2.30
2023-01-29T09:25:42.258Z,2.40
2023-01-29T09:28:12.865Z,2.30
2023-01-29T09:30:43.231Z,2.40
2023-01-29T09:33:13.800Z,2.40
2023-01-29T09:35:45.965Z,2.40
2023-01-29T09:38:16.977Z,2.40
2023-01-29T09:41:01.296Z,2.40
2023-01-29T09:43:43.401Z,2.50
2023-01-29T09:46:23.145Z,2.50
2023-01-29T09:49:00.755Z,2.60
2023-01-29T09:51:37.534Z,2.50
2023-01-29T09:54:17.828Z,2.50
2023-01-29T09:56:53.848Z,2.60
2023-01-29T09:59:26.775Z,2.60
2023-01-29T10:02:10.536Z,2.60
2023-01-29T10:05:18.418Z,2.60
2023-01-29T10:08:15.727Z,2.60
2023-01-29T10:10:53.440Z,2.70
2023-01-29T10:13:33.857Z,2.70
2023-01-29T10:16:19.357Z,2.70
2023-01-29T10:19:04.292Z,2.70
2023-01-29T10:22:07.994Z,2.70
2023-01-29T10:24:41.627Z,2.70
2023-01-29T10:27:18.436Z,2.80
2023-01-29T10:29:56.392Z,2.70
2023-01-29T10:32:29.824Z,2.80
2023-01-29T10:35:03.473Z,2.90
2023-01-29T10:37:42.537Z,2.90
2023-01-29T10:40:26.736Z,2.90
2023-01-29T10:43:05.220Z,2.90
2023-01-29T10:45:40.525Z,3.00
2023-01-29T10:48:42.806Z,3.00
2023-01-29T10:51:25.259Z,2.90
2023-01-29T10:54:13.502Z,3.10
2023-01-29T10:56:59.959Z,3.10
2023-01-29T10:59:46.293Z,3.10
2023-01-29T11:02:22.805Z,3.00
2023-01-29T11:04:53.509Z,3.10
2023-01-29T11:07:27.900Z,3.20
2023-01-29T11:10:05.731Z,3.10
2023-01-29T11:12:38.467Z,3.10
2023-01-29T11:15:17.285Z,3.10
2023-01-29T11:18:10.802Z,3.10
2023-01-29T11:20:41.198Z,3.20
2023-01-29T11:23:29.179Z,3.20
2023-01-29T11:26:00.828Z,3.30
2023-01-29T11:28:44.647Z,3.20
2023-01-29T11:31:29.347Z,3.30
2023-01-29T11:34:16.429Z,3.30
2023-01-29T11:36:47.162Z,3.40
2023-01-29T11:39:22.199Z,3.50
2023-01-29T11:41:56.148Z,3.30
2023-01-29T11:44:33.065Z,3.40
2023-01-29T11:47:15.767Z,3.40
2023-01-29T11:49:52.374Z,3.50
2023-01-29T11:52:25.138Z,3.50
2023-01-29T11:54:59.450Z,3.50
2023-01-29T11:57:36.994Z,3.50
2023-01-29T12:00:10.190Z,3.60
2023-01-29T12:02:47.079Z,3.60
2023-01-29T12:05:22.494Z,3.60
2023-01-29T12:07:54.965Z,3.70
2023-01-29T12:10:36.892Z,3.70
2023-01-29T12:13:08.614Z,3.80
2023-01-29T12:15:39.857Z,3.80
2023-01-29T12:18:17.225Z,3.80
2023-01-29T12:20:56.302Z,3.90
2023-01-29T12:23:36.447Z,3.90
2023-01-29T12:26:13.853Z,3.90
2023-01-29T12:28:53.643Z,4.00
2023-01-29T12:31:34.742Z,4.00
2023-01-29T12:34:13.634Z,3.90
2023-01-29T12:36:53.692Z,4.00
2023-01-29T12:39:24.901Z,4.10
2023-01-29T12:42:01.144Z,4.10
2023-01-29T12:44:42.504Z,4.20
2023-01-29T12:47:18.239Z,4.20
2023-01-29T12:49:54.384Z,4.20
2023-01-29T12:52:40.135Z,4.30
2023-01-29T12:55:17.226Z,4.30
2023-01-29T12:57:53.867Z,4.30
2023-01-29T13:00:27.374Z,4.30
2023-01-29T13:03:04.726Z,4.30
2023-01-29T13:05:42.504Z,4.30
2023-01-29T13:08:20.555Z,4.40
2023-01-29T13:10:54.797Z,4.30
2023-01-29T13:13:32.029Z,4.40
2023-01-29T13:16:04.237Z,4.40
2023-01-29T13:18:47.650Z,4.50
2023-01-29T13:21:22.419Z,4.50
2023-01-29T13:23:59.633Z,4.50
2023-01-29T13:26:31.125Z,4.50
2023-01-29T13:29:02.683Z,4.50
2023-01-29T13:31:35.700Z,4.50
2023-01-29T13:34:13.813Z,4.60
2023-01-29T13:36:50.201Z,4.60
2023-01-29T13:39:28.549Z,4.60
2023-01-29T13:42:05.398Z,4.60
2023-01-29T13:44:38.973Z,4.60
2023-01-29T13:47:23.563Z,4.80
2023-01-29T13:50:00.501Z,4.70
2023-01-29T13:52:40.030Z,4.70
2023-01-29T13:55:31.508Z,4.70
2023-01-29T13:58:02.581Z,4.70
2023-01-29T14:00:56.444Z,4.70
2023-01-29T14:04:05.878Z,4.70
2023-01-29T14:06:49.635Z,4.70
2023-01-29T14:09:52.999Z,4.70
2023-01-29T14:12:50.772Z,4.70
2023-01-29T14:15:30.118Z,4.70
2023-01-29T14:18:27.124Z,4.80
2023-01-29T14:21:07.159Z,4.70
2023-01-29T14:23:46.847Z,4.70
2023-01-29T14:26:31.122Z,4.70
2023-01-29T14:29:08.418Z,4.80
2023-01-29T14:31:47.813Z,4.80
2023-01-29T14:34:23.912Z,4.70
2023-01-29T14:36:58.589Z,4.70
2023-01-29T14:39:37.360Z,4.70
2023-01-29T14:42:19.511Z,4.70
2023-01-29T14:45:05.415Z,4.80
2023-01-29T14:47:59.874Z,4.80
2023-01-29T14:50:52.412Z,4.80
2023-01-29T14:53:33.192Z,4.70
2023-01-29T14:56:07.197Z,4.80
2023-01-29T14:58:46.630Z,4.80
2023-01-29T15:01:27.831Z,4.70
2023-01-29T15:04:05.375Z,4.80
2023-01-29T15:06:42.425Z,4.80
2023-01-29T15:09:19.225Z,4.80
2023-01-29T15:12:03.423Z,4.80
2023-01-29T15:14:36.920Z,4.80
2023-01-29T15:17:31.108Z,4.80
2023-01-29T15:20:03.497Z,4.80
2023-01-29T15:22:36.545Z,4.90
2023-01-29T15:25:10.204Z,4.80
2023-01-29T15:27:47.740Z,4.80
2023-01-29T15:30:21.496Z,4.80
2023-01-29T15:32:54.652Z,4.80
2023-01-29T15:35:32.067Z,4.80
2023-01-29T15:38:04.060Z,4.80
2023-01-29T15:40:35.179Z,4.80
2023-01-29T15:43:05.485Z,4.80
2023-01-29T15:45:37.333Z,4.80
2023-01-29T15:48:17.554Z,4.80
2023-01-29T15:50:48.779Z,4.80
2023-01-29T15:53:23.434Z,4.80
2023-01-29T15:55:57.134Z,4.70
2023-01-29T15:58:33.232Z,4.80
2023-01-29T16:01:04.995Z,4.70
2023-01-29T16:03:39.264Z,4.70
2023-01-29T16:06:10.423Z,4.70
2023-01-29T16:08:43.204Z,4.70
2023-01-29T16:11:13.957Z,4.70
2023-01-29T16:13:47.381Z,4.70
2023-01-29T16:16:26.637Z,4.70
2023-01-29T16:19:01.245Z,4.80
2023-01-29T16:21:34.787Z,4.80
2023-01-29T16:24:10.261Z,4.70
2023-01-29T16:26:42.383Z,4.70
2023-01-29T16:29:14.994Z,4.80
2023-01-29T16:31:47.793Z,4.80
2023-01-29T16:34:27.227Z,4.60
2023-01-29T16:36:58.294Z,4.70
2023-01-29T16:39:30.696Z,4.70
2023-01-29T16:42:29.100Z,4.70
2023-01-29T16:45:00.272Z,4.60
2023-01-29T16:47:33.991Z,4.70
2023-01-29T16:50:27.391Z,4.70
2023-01-29T16:53:05.393Z,4.70
2023-01-29T16:55:38.728Z,4.70
2023-01-29T16:58:17.589Z,4.60
2023-01-29T17:00:50.602Z,4.60
2023-01-29T17:03:22.167Z,4.60
2023-01-29T17:05:55.591Z,4.70
2023-01-29T17:08:28.717Z,4.60
2023-01-29T17:10:59.597Z,4.60
2023-01-29T17:13:33.563Z,4.60
2023-01-29T17:16:05.684Z,4.60
2023-01-29T17:18:36.128Z,4.60
2023-01-29T17:21:09.231Z,4.60
2023-01-29T17:23:39.994Z,4.60
2023-01-29T17:26:12.796Z,4.60
2023-01-29T17:28:43.804Z,4.60
2023-01-29T17:31:14.515Z,4.60
2023-01-29T17:33:46.274Z,4.60
2023-01-29T17:36:21.080Z,4.60
2023-01-29T17:38:51.493Z,4.60
2023-01-29T17:41:25.813Z,4.60
2023-01-29T17:43:56.381Z,4.60
2023-01-29T17:46:27.603Z,4.60
2023-01-29T17:48:58.261Z,4.70
2023-01-29T17:51:31.343Z,4.60
2023-01-29T17:54:02.214Z,4.60
2023-01-29T17:56:32.648Z,4.50
2023-01-29T17:59:03.077Z,4.50
2023-01-29T18:01:33.449Z,4.50
2023-01-29T18:04:04.008Z,4.50
2023-01-29T18:06:37.080Z,4.50
2023-01-29T18:09:08.156Z,4.50
2023-01-29T18:11:38.541Z,4.60
2023-01-29T18:14:14.465Z,4.50
2023-01-29T18:16:46.288Z,4.50
2023-01-29T18:19:19.368Z,4.50
2023-01-29T18:21:53.628Z,4.50
2023-01-29T18:24:26.731Z,4.50
2023-01-29T18:26:57.238Z,4.50
2023-01-29T18:29:30.279Z,4.50
2023-01-29T18:32:00.686Z,4.50
2023-01-29T18:34:31.187Z,4.40
2023-01-29T18:37:04.108Z,4.40
2023-01-29T18:39:34.716Z,4.40
2023-01-29T18:42:05.145Z,4.50
2023-01-29T18:44:35.579Z,4.50
2023-01-29T18:47:05.934Z,4.40
2023-01-29T18:49:39.139Z,4.40
2023-01-29T18:52:12.089Z,4.40
2023-01-29T18:54:42.610Z,4.40
2023-01-29T18:57:14.555Z,4.40
2023-01-29T19:00:03.519Z,4.40
2023-01-29T19:02:34.819Z,4.40
2023-01-29T19:05:05.256Z,4.40
2023-01-29T19:07:38.292Z,4.40
2023-01-29T19:10:12.789Z,4.60
2023-01-29T19:12:43.402Z,4.50
2023-01-29T19:15:14.761Z,4.50
2023-01-29T19:17:45.269Z,4.50
2023-01-29T19:20:16.303Z,4.40
2023-01-29T19:22:49.354Z,4.50
2023-01-29T19:25:20.642Z,4.50
2023-01-29T19:27:51.065Z,4.50
2023-01-29T19:30:21.725Z,4.50
2023-01-29T19:32:52.056Z,4.50
2023-01-29T19:35:22.477Z,4.50
2023-01-29T19:37:55.412Z,4.60
2023-01-29T19:40:26.705Z,4.50
2023-01-29T19:42:58.623Z,4.50
2023-01-29T19:45:37.220Z,4.50
2023-01-29T19:48:22.013Z,4.50
2023-01-29T19:50:56.369Z,4.40
2023-01-29T19:53:31.821Z,4.50
2023-01-29T19:56:03.265Z,4.40
2023-01-29T19:58:34.224Z,4.40
2023-01-29T20:01:07.405Z,4.40
2023-01-29T20:03:38.177Z,4.40
2023-01-29T20:06:09.676Z,4.40
2023-01-29T20:08:43.113Z,4.30
2023-01-29T20:11:15.614Z,4.40
2023-01-29T20:13:46.065Z,4.30
2023-01-29T20:16:16.544Z,4.30
2023-01-29T20:18:47.025Z,4.30
2023-01-29T20:21:20.673Z,4.40
2023-01-29T20:23:55.315Z,4.40
2023-01-29T20:26:25.713Z,4.30
2023-01-29T20:28:56.052Z,4.30
2023-01-29T20:31:26.510Z,4.30
2023-01-29T20:33:56.827Z,4.30
2023-01-29T20:36:27.438Z,4.30
2023-01-29T20:39:00.352Z,4.40
2023-01-29T20:41:30.838Z,4.40
2023-01-29T20:44:01.210Z,4.40
2023-01-29T20:46:31.569Z,4.40
2023-01-29T20:49:01.831Z,4.40
2023-01-29T20:51:32.455Z,4.50
2023-01-29T20:54:05.416Z,4.40
2023-01-29T20:56:38.478Z,4.50
2023-01-29T20:59:15.517Z,4.50
2023-01-29T21:01:46.950Z,4.50
2023-01-29T21:04:17.444Z,4.50
2023-01-29T21:06:47.880Z,4.50
2023-01-29T21:09:20.825Z,4.50
2023-01-29T21:11:51.291Z,4.50
2023-01-29T21:14:21.573Z,4.60
2023-01-29T21:16:52.040Z,4.60
2023-01-29T21:19:22.619Z,4.60
2023-01-29T21:21:53.068Z,4.60
2023-01-29T21:24:25.996Z,4.60
2023-01-29T21:26:56.671Z,4.70
2023-01-29T21:29:26.978Z,4.70
2023-01-29T21:31:57.406Z,4.60
2023-01-29T21:34:27.967Z,4.70
2023-01-29T21:36:58.364Z,4.70
2023-01-29T21:39:31.309Z,4.70
2023-01-29T21:42:14.089Z,4.70
2023-01-29T21:44:44.446Z,4.70
2023-01-29T21:47:17.584Z,4.80
2023-01-29T21:49:48.437Z,4.80
2023-01-29T21:52:18.965Z,4.80
2023-01-29T21:54:51.870Z,4.90
2023-01-29T21:57:26.810Z,4.90
2023-01-29T21:59:57.864Z,4.90
2023-01-29T22:02:31.103Z,4.90
2023-01-29T22:05:17.539Z,4.90
2023-01-29T22:07:48.359Z,5.00
2023-01-29T22:10:22.545Z,5.00
2023-01-29T22:12:53.198Z,5.00
2023-01-29T22:15:24.172Z,5.00
2023-01-29T22:17:54.845Z,5.10
2023-01-29T22:20:30.324Z,5.00
2023-01-29T22:23:02.260Z,5.10
2023-01-29T22:25:35.972Z,5.10
2023-01-29T22:28:07.310Z,5.10
2023-01-29T22:30:37.647Z,5.10
2023-01-29T22:33:08.078Z,5.10
2023-01-29T22:35:38.360Z,5.10
2023-01-29T22:38:08.876Z,5.20
2023-01-29T22:40:41.784Z,5.20
2023-01-29T22:43:12.153Z,5.20
2023-01-29T22:45:42.805Z,5.10
2023-01-29T22:48:13.642Z,5.20
2023-01-29T22:50:53.996Z,5.20
2023-01-29T22:53:24.418Z,5.20
2023-01-29T22:56:00.525Z,5.20
2023-01-29T22:58:30.982Z,5.20
2023-01-29T23:01:01.481Z,5.20
2023-01-29T23:03:32.176Z,5.20
2023-01-29T23:06:02.561Z,5.30
2023-01-29T23:08:34.790Z,5.30
2023-01-29T23:11:17.841Z,5.30
2023-01-29T23:13:49.558Z,5.30
2023-01-29T23:16:21.010Z,5.40
2023-01-29T23:18:53.640Z,5.40
2023-01-29T23:21:25.376Z,5.50
2023-01-29T23:23:58.484Z,5.40
2023-01-29T23:26:44.353Z,5.50
2023-01-29T23:29:14.829Z,5.50
2023-01-29T23:31:45.243Z,5.60
2023-01-29T23:34:16.644Z,5.60
2023-01-29T23:36:47.023Z,5.70
2023-01-29T23:39:17.498Z,5.70
2023-01-29T23:41:50.481Z,5.70
2023-01-29T23:44:20.977Z,5.70
2023-01-29T23:46:51.318Z,5.70
2023-01-29T23:49:21.725Z,5.80
2023-01-29T23:51:52.257Z,5.80
2023-01-29T23:54:22.656Z,5.80
2023-01-29T23:56:55.554Z,5.80
2023-01-29T23:59:26.239Z,5.80
